Aérodrome :
LOGIN :

S'inscrire | Disclaimer

   EN    FR    IT 

 










Légende :    VFR   VFR Marginal   IFR   IFR Intensif   IFR Très Intensif
Visi : 
Plafond : 
>= 8 km
>= 3000ft
5 à 8 km
1000 à 3000 ft
1500m à 5 km
500 à 1000 ft
800 à 1500m
200 à 500 ft
< 800m
< 200 ft
Symboles :   Orages  Brouillard  Fortes neiges  Fortes précipitations  Vent > 20 kt
SIGMETs :   Divers  Orages  Givrage  Turbulence  Onde Orograph.  Cendres Volcan.






- Altitude de l'aérodrome : 240 ft
- Code IATA : VLC


LEVC - Valencia Manises

DERNIER METAR :
  • 270600Z 27003KT CAVOK 16/15 Q1020 NOSIG

METARs EXPIRÉS :
  • 270530Z 26005KT 9999 FEW020 17/15 Q1020 NOSIG
  • 270500Z 24003KT 9999 FEW018 17/16 Q1020 NOSIG
  • 270430Z 28003KT 9999 FEW018 17/16 Q1020 NOSIG
  • 270400Z 28002KT 9999 FEW018 17/16 Q1020 NOSIG
  • 270330Z 29003KT 9999 FEW018 18/16 Q1020 NOSIG

TAF TAF LEVC
Valide du 27 à 06h jusqu'au 28 à 06h UTC


270500Z 2706/2806 30005KT 9999 FEW015 TX32/2713Z TN16/2706Z
BECMG 2712/2714 12010KT
BECMG 2716/2718 03008KT
BECMG 2719/2721 VRB03KT
BECMG 2803/2805 01010KT
PROB40
TEMPO 2802/2806 BKN010



MET'MAP, la Météo Aéronautique d'un coup d'oeil ! - Copyright ORBIFLY Décembre 2007 - Disclaimer

ORBIFLY MET'MAP TEAM :

Programmation & Développement : Alexandra Zaïnal
Sur une idée originale de : Baudouin d'Aumeries
Assistance à la programmation : Marc-Olivier Méhu
Soutien technique & logistique : Manuel Goepfert

Contact : metmap@orbifly.com




SOURCES & CREDITS :

   NOAA